Terminal Aerodrome Forecast
Issued by NWS

Home | Current Version | Previous Version | Text Only | Print | Product List | Glossary On
Versions: 1 2 3 4 5 6 7 8 9 10 11 12 13 14 15 16
000
FTUS44 KLIX 021123
TAFMCB
TAF
KMCB 021123Z 0212/0312 21003KT P6SM FEW110
     FM021300 23005KT P6SM SCT025
     FM030200 22003KT P6SM SKC
      TEMPO 0310/0312 1SM BR BKN003=

USA.gov is the U.S. government's official web portal to all federal, state and local government web resources and services.